Time;durP1;ratioP1;P1;durP2;ratioP2;P2;SDS_P1;SDS_P2;PMS_P1;PMS_P2;Temp;Humidity;BMP_temperature;BMP_pressure;BME280_temperature;BME280_humidity;BME280_pressure;Samples;Min_cycle;Max_cycle;Signal;HPM_P1;HPM_P2
2023/08/19 00:00:53;;;;;;;10.53;4.03;;;22.70;99.90;;;;;;5027728;28;20449;-65
2023/08/19 00:03:19;;;;;;;8.13;3.93;;;22.70;99.90;;;;;;5023623;28;21382;-65
2023/08/19 00:05:45;;;;;;;4.70;4.20;;;22.70;99.90;;;;;;5030822;28;20205;-65
2023/08/19 00:08:11;;;;;;;4.53;3.93;;;22.80;99.90;;;;;;5025624;28;20193;-65
2023/08/19 00:10:36;;;;;;;5.10;3.63;;;22.70;99.90;;;;;;5029708;28;20431;-65
2023/08/19 00:13:03;;;;;;;6.10;4.20;;;22.70;99.90;;;;;;5027119;28;20282;-65
2023/08/19 00:15:28;;;;;;;4.33;3.93;;;22.70;99.90;;;;;;5031003;28;20189;-65
2023/08/19 00:17:54;;;;;;;6.30;4.30;;;22.60;99.90;;;;;;5028659;28;20451;-65
2023/08/19 00:20:20;;;;;;;4.13;3.73;;;22.60;99.90;;;;;;5024035;28;20202;-65
2023/08/19 00:22:45;;;;;;;5.47;3.70;;;22.50;99.90;;;;;;5028321;28;20190;-65
2023/08/19 00:25:11;;;;;;;6.00;3.87;;;22.50;99.90;;;;;;5030687;28;22363;-65
2023/08/19 00:27:36;;;;;;;5.40;4.13;;;22.50;99.90;;;;;;5024932;28;20252;-65
2023/08/19 00:30:03;;;;;;;6.67;3.70;;;22.50;99.90;;;;;;5025709;28;20178;-65
2023/08/19 00:32:30;;;;;;;4.83;4.23;;;22.40;99.90;;;;;;5030204;28;20184;-65
2023/08/19 00:34:55;;;;;;;4.33;3.90;;;22.30;99.90;;;;;;5033225;28;20467;-65
2023/08/19 00:37:21;;;;;;;4.17;3.80;;;22.30;99.90;;;;;;5032515;28;20457;-65
2023/08/19 00:39:47;;;;;;;7.17;4.53;;;22.30;99.90;;;;;;5031171;28;20210;-65
2023/08/19 00:42:12;;;;;;;6.90;5.17;;;22.30;99.90;;;;;;5025769;28;20468;-65
2023/08/19 00:44:38;;;;;;;4.63;4.27;;;22.20;99.90;;;;;;5026022;28;20202;-65
2023/08/19 00:47:04;;;;;;;6.87;3.83;;;22.60;99.90;;;;;;5030675;28;20198;-65
2023/08/19 00:49:31;;;;;;;5.30;4.10;;;22.10;99.90;;;;;;5036894;28;20214;-65
2023/08/19 00:51:58;;;;;;;4.30;3.87;;;22.10;99.90;;;;;;5035016;28;20803;-65
2023/08/19 00:54:24;;;;;;;4.13;3.83;;;22.10;99.90;;;;;;5030795;28;20455;-65
2023/08/19 00:56:49;;;;;;;5.40;3.53;;;22.10;99.90;;;;;;5036055;28;20469;-65
2023/08/19 00:59:16;;;;;;;4.30;3.73;;;22.10;99.90;;;;;;5028932;28;20301;-65
2023/08/19 01:01:41;;;;;;;5.80;4.47;;;22.10;99.90;;;;;;5033513;28;20226;-65
2023/08/19 01:04:07;;;;;;;6.57;4.00;;;22.00;99.90;;;;;;5035576;28;20510;-65
2023/08/19 01:07:08;;;;;;;4.43;4.03;;;21.90;99.90;;;;;;5029372;28;20285;-65
2023/08/19 01:10:17;;;;;;;4.60;4.20;;;21.90;99.90;;;;;;5034758;28;20933;-65
2023/08/19 01:12:56;;;;;;;4.80;4.30;;;21.80;99.90;;;;;;4983293;28;20434;-65
2023/08/19 01:15:29;;;;;;;4.53;4.13;;;21.80;99.90;;;;;;5029995;28;20475;-65
2023/08/19 01:17:56;;;;;;;6.60;4.37;;;21.80;99.90;;;;;;5034788;28;20440;-65
2023/08/19 01:20:29;;;;;;;4.73;3.80;;;21.80;99.90;;;;;;5030313;28;20463;-65
2023/08/19 01:23:13;;;;;;;4.68;4.22;;;21.70;99.90;;;;;;5025772;28;20859;-65
2023/08/19 01:25:41;;;;;;;3.97;3.67;;;21.60;99.90;;;;;;5030038;28;20240;-65
2023/08/19 01:28:07;;;;;;;4.40;4.00;;;21.60;99.90;;;;;;5032079;28;20455;-65
2023/08/19 01:30:33;;;;;;;6.77;4.07;;;21.50;99.90;;;;;;5030200;28;20535;-65
2023/08/19 01:33:00;;;;;;;4.90;4.27;;;21.40;99.90;;;;;;5031219;28;20237;-65
2023/08/19 01:35:25;;;;;;;4.43;3.93;;;21.40;99.90;;;;;;5033333;28;20455;-65
2023/08/19 01:38:02;;;;;;;4.90;4.43;;;21.30;99.90;;;;;;5034597;28;20524;-65
2023/08/19 01:40:28;;;;;;;6.40;4.32;;;21.40;99.90;;;;;;5032227;28;20181;-64
2023/08/19 01:42:55;;;;;;;5.80;4.30;;;21.30;99.90;;;;;;5030295;28;20259;-65
2023/08/19 01:45:22;;;;;;;5.17;4.67;;;21.20;99.90;;;;;;5030830;28;20969;-65
2023/08/19 01:47:54;;;;;;;6.03;3.83;;;21.10;99.90;;;;;;5029679;28;20527;-64
2023/08/19 01:50:20;;;;;;;6.80;4.30;;;21.10;99.90;;;;;;5034257;28;20445;-65
2023/08/19 01:52:45;;;;;;;5.90;4.73;;;21.10;99.90;;;;;;5031952;28;20498;-65
2023/08/19 01:55:11;;;;;;;4.20;3.87;;;21.00;99.90;;;;;;5032476;28;20442;-64
2023/08/19 01:57:37;;;;;;;4.50;4.20;;;21.00;99.90;;;;;;5031638;28;20718;-65
2023/08/19 02:00:07;;;;;;;6.60;4.40;;;21.00;99.90;;;;;;5025566;28;20188;-65
2023/08/19 02:02:32;;;;;;;4.72;4.32;;;21.10;99.90;;;;;;5025151;28;20564;-65
2023/08/19 02:04:58;;;;;;;7.10;4.20;;;21.10;99.90;;;;;;5027315;28;20209;-64
2023/08/19 02:07:23;;;;;;;4.37;3.97;;;21.10;99.90;;;;;;5031173;28;20213;-64
2023/08/19 02:09:49;;;;;;;5.03;4.43;;;21.10;99.90;;;;;;5035654;28;20209;-65
2023/08/19 02:12:14;;;;;;;5.43;4.20;;;21.10;99.90;;;;;;5031752;28;20747;-65
2023/08/19 02:14:40;;;;;;;5.80;4.10;;;21.10;99.90;;;;;;5032188;28;20183;-65
2023/08/19 02:17:06;;;;;;;6.07;3.90;;;21.10;99.90;;;;;;5034658;28;20230;-64
2023/08/19 02:19:31;;;;;;;5.50;4.50;;;21.10;99.90;;;;;;5029035;28;20198;-65
2023/08/19 02:21:57;;;;;;;5.30;4.53;;;21.00;99.90;;;;;;5031356;28;20198;-65
2023/08/19 02:24:22;;;;;;;4.83;4.13;;;21.10;99.90;;;;;;5029524;28;20207;-65
2023/08/19 02:26:48;;;;;;;6.60;4.47;;;21.10;99.90;;;;;;5035001;28;20202;-64
2023/08/19 02:29:14;;;;;;;6.70;4.00;;;21.00;99.90;;;;;;5028261;28;20623;-65
2023/08/19 02:31:39;;;;;;;4.80;4.37;;;21.00;99.90;;;;;;5029143;28;20190;-65
2023/08/19 02:34:05;;;;;;;6.20;4.83;;;21.00;99.90;;;;;;5032000;28;20181;-65
2023/08/19 02:36:31;;;;;;;5.13;4.30;;;21.00;99.90;;;;;;5031174;28;20792;-65
2023/08/19 02:38:57;;;;;;;4.28;3.88;;;21.00;99.90;;;;;;5028788;28;20196;-65
2023/08/19 02:41:23;;;;;;;6.33;4.20;;;21.00;99.90;;;;;;5031500;28;20198;-65
2023/08/19 02:43:49;;;;;;;4.33;3.83;;;20.90;99.90;;;;;;5029222;28;20484;-65
2023/08/19 02:46:15;;;;;;;4.80;4.40;;;20.80;99.90;;;;;;5031528;28;20205;-65
2023/08/19 02:48:41;;;;;;;5.87;3.97;;;20.80;99.90;;;;;;5032611;28;20190;-65
2023/08/19 02:51:06;;;;;;;5.30;4.20;;;20.90;99.90;;;;;;5031246;28;20233;-65
2023/08/19 02:53:32;;;;;;;4.50;4.10;;;20.80;99.90;;;;;;5029035;28;20273;-64
2023/08/19 02:55:58;;;;;;;4.93;4.43;;;20.70;99.90;;;;;;5030890;28;20209;-65
2023/08/19 02:58:24;;;;;;;7.43;5.77;;;20.70;99.90;;;;;;5025889;28;20187;-65
2023/08/19 03:00:50;;;;;;;5.10;4.70;;;20.70;99.90;;;;;;5026977;28;20201;-65
2023/08/19 03:03:17;;;;;;;4.90;4.30;;;20.60;99.90;;;;;;5033476;28;20600;-65
2023/08/19 03:05:42;;;;;;;4.38;4.00;;;20.60;99.90;;;;;;5028487;28;20201;-65
2023/08/19 03:08:09;;;;;;;4.60;4.20;;;20.60;99.90;;;;;;5028949;28;20195;-64
2023/08/19 03:10:39;;;;;;;4.63;4.10;;;20.60;99.90;;;;;;5025498;28;20190;-65
2023/08/19 03:13:06;;;;;;;4.22;3.83;;;20.50;99.90;;;;;;5026849;28;20205;-65
2023/08/19 03:15:33;;;;;;;6.77;4.70;;;20.50;99.90;;;;;;5032780;28;20277;-65
2023/08/19 03:17:59;;;;;;;4.70;4.30;;;20.50;99.90;;;;;;5029613;28;20455;-65
2023/08/19 03:20:25;;;;;;;4.33;4.03;;;20.50;99.90;;;;;;5027644;28;20209;-64
2023/08/19 03:22:51;;;;;;;4.70;4.27;;;20.60;99.90;;;;;;5030469;28;20194;-64
2023/08/19 03:25:16;;;;;;;4.47;3.87;;;20.60;99.90;;;;;;5030355;28;20608;-65
2023/08/19 03:27:42;;;;;;;4.27;3.80;;;20.50;99.90;;;;;;5032627;28;20508;-64
2023/08/19 03:30:08;;;;;;;4.37;3.97;;;20.60;99.90;;;;;;5027704;28;20445;-64
2023/08/19 03:32:34;;;;;;;6.75;5.22;;;20.60;99.90;;;;;;5037100;28;20198;-64
2023/08/19 03:34:59;;;;;;;7.67;4.77;;;20.60;99.90;;;;;;5028407;28;20185;-64
2023/08/19 03:37:25;;;;;;;6.30;4.57;;;20.60;99.90;;;;;;5029182;28;20293;-64
2023/08/19 03:39:51;;;;;;;4.53;4.13;;;20.50;99.90;;;;;;5030363;28;20273;-64
2023/08/19 03:42:18;;;;;;;5.20;4.47;;;20.60;99.90;;;;;;5028931;28;20472;-65
2023/08/19 03:44:44;;;;;;;4.40;4.10;;;20.50;99.90;;;;;;5027327;28;20212;-64
2023/08/19 03:47:11;;;;;;;6.88;4.10;;;20.40;99.90;;;;;;5024294;28;20994;-64
2023/08/19 03:49:37;;;;;;;5.45;4.38;;;20.40;99.90;;;;;;5031125;28;20195;-64
2023/08/19 03:52:05;;;;;;;4.40;4.10;;;20.40;99.90;;;;;;5031457;28;20187;-64
2023/08/19 03:54:31;;;;;;;4.68;4.30;;;20.40;99.90;;;;;;5031144;28;20471;-64
2023/08/19 03:56:56;;;;;;;5.53;4.00;;;20.30;99.90;;;;;;5027492;28;20218;-64
2023/08/19 03:59:22;;;;;;;5.37;3.87;;;20.30;99.90;;;;;;5020913;28;20899;-64
2023/08/19 04:01:47;;;;;;;4.53;4.13;;;20.30;99.90;;;;;;5020393;28;20202;-64
2023/08/19 04:04:13;;;;;;;5.23;4.20;;;20.20;99.90;;;;;;5024736;28;20208;-64
2023/08/19 04:06:39;;;;;;;4.70;4.30;;;20.20;99.90;;;;;;5029658;28;20271;-64
2023/08/19 04:09:05;;;;;;;4.87;4.23;;;20.20;99.90;;;;;;5028645;28;20178;-64
2023/08/19 04:11:31;;;;;;;6.07;4.15;;;20.20;99.90;;;;;;5031239;28;20174;-64
2023/08/19 04:13:56;;;;;;;4.30;4.00;;;20.10;99.90;;;;;;5024258;28;20212;-64
2023/08/19 04:16:23;;;;;;;4.20;3.80;;;20.10;99.90;;;;;;5031538;28;20214;-64
2023/08/19 04:18:50;;;;;;;4.93;4.43;;;20.10;99.90;;;;;;5029476;28;20615;-64
2023/08/19 04:21:16;;;;;;;4.88;4.20;;;20.10;99.90;;;;;;5028815;28;20261;-64
2023/08/19 04:23:41;;;;;;;6.10;3.90;;;20.10;99.90;;;;;;5030954;28;20301;-65
2023/08/19 04:26:07;;;;;;;4.53;3.93;;;20.10;99.90;;;;;;5031860;28;20553;-65
2023/08/19 04:28:33;;;;;;;4.73;4.03;;;20.00;99.90;;;;;;5025793;28;20194;-65
2023/08/19 04:31:06;;;;;;;7.23;4.07;;;20.00;99.90;;;;;;5030356;28;20516;-65
2023/08/19 04:33:32;;;;;;;3.75;3.45;;;20.00;99.90;;;;;;5030350;28;20190;-65
2023/08/19 04:35:58;;;;;;;4.65;4.10;;;20.10;99.90;;;;;;5035066;28;20773;-65
2023/08/19 04:38:24;;;;;;;4.33;3.93;;;20.10;99.90;;;;;;5027502;28;20256;-65
2023/08/19 04:40:50;;;;;;;4.63;4.23;;;20.10;99.90;;;;;;5030518;28;20444;-65
2023/08/19 04:43:19;;;;;;;4.40;4.00;;;20.20;99.90;;;;;;5026323;28;20714;-64
2023/08/19 04:45:45;;;;;;;4.50;4.00;;;20.20;99.90;;;;;;5025475;28;20846;-65
2023/08/19 04:48:11;;;;;;;4.97;4.57;;;20.20;99.90;;;;;;5031448;28;20209;-64
2023/08/19 04:50:37;;;;;;;5.20;4.23;;;20.20;99.90;;;;;;5029307;28;20195;-64
2023/08/19 04:53:03;;;;;;;4.87;4.47;;;19.70;99.90;;;;;;5026791;28;20651;-65
2023/08/19 04:55:29;;;;;;;4.65;4.18;;;20.30;99.90;;;;;;5024904;28;20228;-74
2023/08/19 04:57:54;;;;;;;4.22;3.90;;;20.40;99.90;;;;;;5020602;28;20182;-78
2023/08/19 05:00:20;;;;;;;4.00;3.70;;;20.40;99.90;;;;;;5023077;28;20524;-78
2023/08/19 05:02:47;;;;;;;4.10;3.70;;;20.50;99.90;;;;;;5029886;28;20186;-78
2023/08/19 05:05:12;;;;;;;4.72;3.80;;;20.60;99.90;;;;;;5027109;28;20212;-78
2023/08/19 05:07:38;;;;;;;6.27;4.03;;;20.50;99.90;;;;;;5022532;28;20210;-78
2023/08/19 05:10:04;;;;;;;4.40;4.00;;;20.60;99.90;;;;;;5025316;28;20186;-78
2023/08/19 05:12:29;;;;;;;4.30;3.90;;;20.60;99.90;;;;;;5028873;28;20185;-78
2023/08/19 05:14:55;;;;;;;5.27;4.37;;;20.80;99.90;;;;;;5021928;28;20444;-79
2023/08/19 05:17:20;;;;;;;4.67;4.07;;;20.80;99.90;;;;;;5024941;28;20213;-78
2023/08/19 05:19:46;;;;;;;5.50;4.00;;;20.90;99.90;;;;;;5024275;28;20198;-78
2023/08/19 05:22:12;;;;;;;5.40;4.47;;;21.00;99.90;;;;;;5018203;28;20191;-78
2023/08/19 05:24:37;;;;;;;4.00;3.60;;;20.90;99.90;;;;;;5021258;28;20232;-78
2023/08/19 05:27:03;;;;;;;4.03;3.70;;;21.00;99.90;;;;;;5026468;28;20209;-78
2023/08/19 05:29:29;;;;;;;4.10;3.70;;;21.00;99.90;;;;;;5019334;28;20182;-78
2023/08/19 05:31:55;;;;;;;5.70;4.00;;;21.20;99.90;;;;;;5024475;28;20182;-78
2023/08/19 05:34:21;;;;;;;5.88;4.40;;;21.20;99.90;;;;;;5022107;28;20452;-77
2023/08/19 05:36:47;;;;;;;4.13;3.80;;;21.30;99.90;;;;;;5025591;28;20197;-82
2023/08/19 05:39:13;;;;;;;4.90;4.40;;;21.30;99.90;;;;;;5025076;28;20182;-80
2023/08/19 05:41:38;;;;;;;6.33;4.93;;;21.30;99.90;;;;;;5025196;28;20482;-78
2023/08/19 05:44:05;;;;;;;4.23;3.83;;;21.40;99.90;;;;;;5026177;28;20201;-78
2023/08/19 05:46:30;;;;;;;4.93;4.20;;;21.60;99.90;;;;;;5020101;28;20206;-78
2023/08/19 05:48:56;;;;;;;6.00;3.90;;;21.70;99.90;;;;;;5028062;28;20449;-78
2023/08/19 05:51:21;;;;;;;6.00;4.17;;;21.80;99.90;;;;;;5028262;28;20193;-80
2023/08/19 05:53:47;;;;;;;7.00;3.80;;;21.90;99.90;;;;;;5023218;28;20187;-78
2023/08/19 05:56:13;;;;;;;4.00;3.70;;;22.00;99.90;;;;;;5026996;28;20216;-74
2023/08/19 05:58:38;;;;;;;3.70;3.40;;;22.00;99.90;;;;;;5021608;28;20535;-76
2023/08/19 06:01:05;;;;;;;6.27;4.00;;;22.20;99.90;;;;;;5022688;28;20190;-74
2023/08/19 06:03:31;;;;;;;5.90;5.40;;;22.30;99.90;;;;;;5015368;28;20262;-76
2023/08/19 06:06:02;;;;;;;6.60;4.50;;;22.40;99.90;;;;;;5017982;28;20466;-76
2023/08/19 06:08:27;;;;;;;6.00;4.70;;;22.50;99.90;;;;;;5043245;28;20186;-75
2023/08/19 06:11:02;;;;;;;4.23;3.83;;;22.70;99.90;;;;;;5023792;28;20528;-76
2023/08/19 06:13:31;;;;;;;4.40;4.00;;;22.90;99.90;;;;;;5024378;28;20185;-77
2023/08/19 06:15:57;;;;;;;4.40;4.00;;;23.30;99.90;;;;;;5025285;28;20456;-75
2023/08/19 06:18:22;;;;;;;4.70;4.07;;;23.60;99.90;;;;;;5024967;28;20487;-76
2023/08/19 06:20:50;;;;;;;6.80;4.23;;;23.80;99.90;;;;;;5029029;28;20535;-77
2023/08/19 06:23:19;;;;;;;5.57;4.20;;;23.90;99.90;;;;;;5029380;28;20190;-78
2023/08/19 06:25:49;;;;;;;4.70;4.30;;;24.10;99.90;;;;;;5026810;28;20471;-76
2023/08/19 06:28:15;;;;;;;5.07;4.63;;;24.20;99.90;;;;;;5020948;28;20451;-76
2023/08/19 06:30:41;;;;;;;4.43;3.70;;;24.30;99.90;;;;;;5029916;28;20461;-75
2023/08/19 06:33:07;;;;;;;4.67;4.03;;;24.40;99.90;;;;;;5031483;28;20801;-75
2023/08/19 06:35:33;;;;;;;5.00;4.17;;;24.50;99.90;;;;;;5026559;28;20537;-76
2023/08/19 06:38:05;;;;;;;4.03;3.70;;;24.60;99.90;;;;;;5023215;28;20536;-76
2023/08/19 06:40:33;;;;;;;4.87;4.47;;;24.70;99.90;;;;;;5015841;28;20433;-78
2023/08/19 06:42:59;;;;;;;4.40;4.00;;;24.70;99.90;;;;;;5018988;28;20541;-76
2023/08/19 06:45:26;;;;;;;6.07;4.73;;;24.90;99.90;;;;;;5024005;28;20545;-76
2023/08/19 06:47:53;;;;;;;4.80;4.40;;;24.90;99.90;;;;;;5023469;28;20496;-76
2023/08/19 06:50:19;;;;;;;4.80;4.07;;;25.00;99.90;;;;;;5026602;28;20526;-76
2023/08/19 06:52:45;;;;;;;5.40;4.60;;;25.20;99.90;;;;;;5021856;28;20469;-76
2023/08/19 06:55:12;;;;;;;4.37;3.97;;;25.30;99.90;;;;;;5027752;28;20569;-76
2023/08/19 06:57:47;;;;;;;4.80;3.93;;;25.50;99.90;;;;;;5023831;28;20466;-78
2023/08/19 07:00:14;;;;;;;6.43;5.83;;;25.70;99.90;;;;;;5016172;28;20443;-76
2023/08/19 07:02:40;;;;;;;6.23;4.50;;;25.90;99.90;;;;;;5026090;28;20448;-75
2023/08/19 07:05:17;;;;;;;6.97;5.20;;;26.00;99.50;;;;;;5024258;28;20541;-76
2023/08/19 07:07:46;;;;;;;6.40;4.47;;;26.30;99.10;;;;;;5017684;28;20868;-76
2023/08/19 07:10:15;;;;;;;4.50;4.10;;;26.60;98.20;;;;;;5032709;28;20440;-75
2023/08/19 07:12:41;;;;;;;5.90;5.07;;;27.00;98.30;;;;;;5023589;28;20466;-75
2023/08/19 07:15:11;;;;;;;7.33;5.43;;;27.80;97.00;;;;;;5027630;28;20475;-75
2023/08/19 07:17:41;;;;;;;5.50;4.80;;;30.20;93.60;;;;;;5021839;28;20457;-77
2023/08/19 07:20:09;;;;;;;5.07;4.67;;;33.60;86.30;;;;;;5022241;28;20517;-76
2023/08/19 07:22:37;;;;;;;5.10;4.57;;;36.80;74.00;;;;;;5017261;28;20441;-77
2023/08/19 07:25:05;;;;;;;3.90;3.60;;;39.10;60.70;;;;;;5022102;28;20469;-76
2023/08/19 07:27:32;;;;;;;7.03;4.10;;;40.50;54.10;;;;;;5022676;28;20470;-76
2023/08/19 07:29:59;;;;;;;4.40;3.80;;;42.10;49.50;;;;;;5021497;28;20544;-76
2023/08/19 07:32:26;;;;;;;5.83;5.33;;;42.70;47.60;;;;;;5024003;28;20977;-77
2023/08/19 07:34:51;;;;;;;5.57;4.80;;;44.30;44.80;;;;;;5036895;28;20807;-77
2023/08/19 07:37:17;;;;;;;7.80;4.70;;;45.80;41.60;;;;;;5026394;28;20460;-77
2023/08/19 07:39:43;;;;;;;6.07;5.13;;;46.80;39.10;;;;;;5023786;28;20635;-78
2023/08/19 07:42:08;;;;;;;4.23;3.33;;;47.70;36.80;;;;;;5032915;28;20220;-77
2023/08/19 07:44:34;;;;;;;4.73;4.33;;;46.90;35.80;;;;;;5029673;28;20208;-77
2023/08/19 07:46:59;;;;;;;4.53;4.13;;;47.60;35.10;;;;;;5027463;28;20205;-77
2023/08/19 07:49:25;;;;;;;6.30;4.47;;;48.00;34.10;;;;;;5029556;28;20178;-76
2023/08/19 07:51:51;;;;;;;4.37;3.97;;;48.10;33.60;;;;;;5030668;28;20174;-77
2023/08/19 07:54:21;;;;;;;6.53;5.73;;;48.10;33.20;;;;;;5035308;28;20200;-76
2023/08/19 07:56:47;;;;;;;4.90;4.40;;;48.90;33.10;;;;;;5028803;28;20790;-77
2023/08/19 07:59:13;;;;;;;5.97;5.37;;;49.00;31.80;;;;;;5023959;28;20440;-77
2023/08/19 08:01:38;;;;;;;8.63;7.73;;;49.50;31.30;;;;;;5026917;28;20222;-77
2023/08/19 08:04:04;;;;;;;5.27;4.87;;;49.40;30.40;;;;;;5031550;28;20202;-76
2023/08/19 08:06:30;;;;;;;5.80;4.43;;;48.70;31.30;;;;;;5028921;28;20213;-76
2023/08/19 08:08:55;;;;;;;4.77;4.20;;;49.20;30.40;;;;;;5035156;28;20437;-76
2023/08/19 08:11:21;;;;;;;7.13;6.30;;;48.20;30.70;;;;;;5024325;28;20328;-77
2023/08/19 08:13:46;;;;;;;7.27;6.53;;;48.90;31.40;;;;;;5030939;28;20639;-76
2023/08/19 08:16:12;;;;;;;5.73;5.27;;;49.40;30.50;;;;;;5031705;28;20533;-76
2023/08/19 08:18:38;;;;;;;4.73;4.33;;;49.90;29.60;;;;;;5024780;28;20675;-77
2023/08/19 08:21:03;;;;;;;5.20;4.80;;;49.50;28.20;;;;;;5034474;28;20188;-77
2023/08/19 08:23:29;;;;;;;4.80;4.40;;;49.00;28.70;;;;;;5021903;28;20205;-76
2023/08/19 08:25:55;;;;;;;4.50;4.10;;;48.00;28.50;;;;;;5028715;28;20664;-77
2023/08/19 08:28:21;;;;;;;8.50;3.97;;;47.90;28.60;;;;;;5025397;28;20189;-77
2023/08/19 08:30:46;;;;;;;5.00;3.53;;;47.70;28.60;;;;;;5024455;28;20582;-77
2023/08/19 08:33:12;;;;;;;5.63;4.47;;;47.50;28.90;;;;;;5023036;28;20442;-76
2023/08/19 08:35:37;;;;;;;4.87;4.47;;;47.40;28.90;;;;;;5015874;28;20210;-77
2023/08/19 08:38:03;;;;;;;4.60;4.20;;;46.80;28.80;;;;;;5025800;28;20182;-77
2023/08/19 08:40:31;;;;;;;5.07;4.60;;;47.10;28.60;;;;;;5027366;28;20182;-77
2023/08/19 08:42:58;;;;;;;4.70;4.03;;;47.70;28.40;;;;;;5027877;28;20537;-78
2023/08/19 08:45:26;;;;;;;6.27;4.13;;;48.00;28.20;;;;;;5026466;28;20530;-76
2023/08/19 08:47:54;;;;;;;7.30;4.23;;;47.50;28.40;;;;;;5026822;28;20441;-77
2023/08/19 08:50:21;;;;;;;4.17;3.77;;;47.70;28.40;;;;;;5030155;28;20428;-78
2023/08/19 08:52:47;;;;;;;6.13;4.67;;;47.40;27.70;;;;;;5029414;28;20440;-76
2023/08/19 08:55:13;;;;;;;5.00;3.80;;;47.50;27.60;;;;;;5024724;28;20441;-77
2023/08/19 08:57:39;;;;;;;4.57;4.13;;;47.60;28.00;;;;;;5029642;28;20495;-77
2023/08/19 09:00:07;;;;;;;4.40;4.00;;;48.30;27.40;;;;;;5021059;28;20436;-77
2023/08/19 09:02:34;;;;;;;4.47;4.00;;;48.10;27.20;;;;;;5035691;28;20183;-77
2023/08/19 09:05:04;;;;;;;4.30;4.00;;;48.60;27.40;;;;;;5025038;28;20461;-77
2023/08/19 09:07:33;;;;;;;5.87;4.10;;;49.00;26.70;;;;;;5025852;28;20484;-77
2023/08/19 09:10:00;;;;;;;5.93;4.27;;;48.40;26.90;;;;;;5029181;28;20515;-77
2023/08/19 09:12:26;;;;;;;5.63;4.83;;;48.40;26.90;;;;;;5027505;28;20443;-77
2023/08/19 09:15:01;;;;;;;4.33;3.93;;;48.70;27.20;;;;;;5020364;28;20492;-77
2023/08/19 09:17:27;;;;;;;5.13;4.13;;;49.30;26.50;;;;;;5033799;28;20494;-77
2023/08/19 09:19:52;;;;;;;4.00;3.70;;;48.90;26.50;;;;;;5033420;28;20821;-77
2023/08/19 09:22:19;;;;;;;5.10;3.80;;;49.00;26.00;;;;;;5028171;28;20190;-77
2023/08/19 09:24:44;;;;;;;5.40;4.40;;;48.20;26.90;;;;;;5025359;28;20204;-77
2023/08/19 09:27:11;;;;;;;6.60;4.20;;;47.40;27.60;;;;;;5020900;28;20462;-77
2023/08/19 09:29:46;;;;;;;5.30;4.80;;;44.90;28.70;;;;;;5023316;28;20174;-77
2023/08/19 09:32:12;;;;;;;5.43;4.83;;;43.00;31.20;;;;;;5038131;28;20440;-76
2023/08/19 09:34:38;;;;;;;4.43;4.03;;;41.40;33.50;;;;;;5023084;28;20860;-76
2023/08/19 09:37:03;;;;;;;5.03;4.63;;;39.90;34.60;;;;;;5026810;28;20210;-76
2023/08/19 09:39:35;;;;;;;4.97;4.53;;;38.10;36.90;;;;;;5020975;28;20182;-77
2023/08/19 09:42:01;;;;;;;6.60;4.93;;;37.20;39.50;;;;;;5026751;28;20498;-78
2023/08/19 09:44:28;;;;;;;5.57;4.93;;;36.90;41.00;;;;;;5022883;28;20473;-75
2023/08/19 09:46:57;;;;;;;5.00;4.60;;;36.70;41.80;;;;;;5019922;28;20194;-77
2023/08/19 09:49:23;;;;;;;5.27;4.33;;;36.30;41.90;;;;;;5034014;28;20476;-76
2023/08/19 09:51:54;;;;;;;6.67;4.70;;;36.00;42.60;;;;;;5022670;28;20438;-75
2023/08/19 09:54:20;;;;;;;4.70;4.30;;;35.70;42.70;;;;;;5027393;28;20531;-77
2023/08/19 09:56:55;;;;;;;6.20;4.63;;;35.30;43.40;;;;;;5024112;28;20527;-76
2023/08/19 09:59:21;;;;;;;9.30;4.10;;;34.90;43.80;;;;;;5021821;28;20444;-75
2023/08/19 10:01:48;;;;;;;6.47;5.03;;;35.00;44.10;;;;;;5024775;28;20858;-76
2023/08/19 10:04:14;;;;;;;6.33;4.90;;;34.60;44.30;;;;;;5018790;28;20460;-76
2023/08/19 10:06:45;;;;;;;5.00;4.50;;;34.50;45.30;;;;;;5025141;28;20472;-76
2023/08/19 10:09:12;;;;;;;6.60;4.63;;;34.50;45.20;;;;;;5026660;28;20183;-76
2023/08/19 10:11:43;;;;;;;6.53;5.10;;;34.60;45.80;;;;;;5033138;28;20459;-77
2023/08/19 10:14:10;;;;;;;4.93;4.40;;;34.80;45.90;;;;;;5019776;28;20437;-76
2023/08/19 10:16:41;;;;;;;4.70;4.40;;;35.10;45.20;;;;;;5016296;28;20457;-77
2023/08/19 10:19:09;;;;;;;11.00;4.80;;;35.10;44.80;;;;;;5038418;28;20455;-76
2023/08/19 10:21:37;;;;;;;4.70;4.27;;;34.90;44.00;;;;;;5015595;28;20441;-76
2023/08/19 10:24:04;;;;;;;5.20;4.70;;;34.80;44.40;;;;;;5024430;28;20466;-76
2023/08/19 10:26:29;;;;;;;5.03;4.43;;;34.80;44.60;;;;;;5024751;28;20534;-75
2023/08/19 10:29:06;;;;;;;6.17;4.10;;;34.80;44.30;;;;;;5024320;28;21048;-76
2023/08/19 10:31:32;;;;;;;5.30;4.23;;;34.70;44.40;;;;;;5029949;28;20173;-76
2023/08/19 10:33:58;;;;;;;5.77;4.67;;;34.40;45.00;;;;;;5030448;28;20447;-76
2023/08/19 10:36:30;;;;;;;6.03;5.17;;;34.40;45.70;;;;;;5029034;28;20229;-76
2023/08/19 10:38:58;;;;;;;4.70;3.90;;;34.40;45.50;;;;;;5022906;28;20441;-76
2023/08/19 10:41:33;;;;;;;6.23;4.87;;;34.60;45.30;;;;;;5027612;28;20517;-77
2023/08/19 10:44:00;;;;;;;6.87;4.97;;;34.60;45.20;;;;;;5028698;28;20584;-77
2023/08/19 10:46:46;;;;;;;5.20;4.70;;;34.70;45.30;;;;;;5018981;28;20983;-77
2023/08/19 10:49:19;;;;;;;5.80;4.70;;;34.60;45.70;;;;;;5021875;28;20441;-76
2023/08/19 10:52:03;;;;;;;5.90;4.40;;;34.80;46.50;;;;;;5024070;28;20433;-77
2023/08/19 10:54:44;;;;;;;4.63;4.20;;;34.90;47.00;;;;;;5027696;28;20463;-77
2023/08/19 10:57:12;;;;;;;5.20;4.70;;;35.00;46.70;;;;;;5023770;28;20465;-76
2023/08/19 10:59:40;;;;;;;5.00;4.50;;;35.20;45.80;;;;;;5022980;28;20966;-77
2023/08/19 11:02:08;;;;;;;5.50;4.47;;;35.20;44.90;;;;;;5018546;28;20532;-76
2023/08/19 11:04:36;;;;;;;4.40;4.10;;;35.20;44.00;;;;;;5025022;28;20468;-76
2023/08/19 11:07:04;;;;;;;4.53;4.13;;;35.20;42.40;;;;;;5012947;28;20454;-77
2023/08/19 11:09:30;;;;;;;5.07;4.57;;;35.20;44.80;;;;;;5022876;28;20441;-77
2023/08/19 11:11:59;;;;;;;5.20;4.80;;;35.30;45.60;;;;;;5029440;28;20827;-77
2023/08/19 11:14:25;;;;;;;4.70;4.30;;;35.30;45.50;;;;;;5026835;28;20217;-77
2023/08/19 11:16:52;;;;;;;4.83;4.43;;;35.40;44.60;;;;;;5021602;28;20489;-77
2023/08/19 11:19:18;;;;;;;6.10;4.60;;;35.40;44.30;;;;;;5024487;28;20993;-76
2023/08/19 11:21:44;;;;;;;5.00;4.47;;;35.40;44.30;;;;;;5022075;28;20455;-77
2023/08/19 11:24:11;;;;;;;4.97;4.47;;;35.30;44.30;;;;;;5026576;28;20211;-77
2023/08/19 11:26:47;;;;;;;4.93;4.43;;;35.30;44.00;;;;;;5022438;28;20477;-77
2023/08/19 11:29:13;;;;;;;5.00;4.50;;;35.30;44.10;;;;;;5015809;28;20471;-77
2023/08/19 11:31:40;;;;;;;7.17;4.40;;;35.20;43.70;;;;;;5021645;28;20901;-76
2023/08/19 11:34:10;;;;;;;6.50;4.87;;;35.20;44.00;;;;;;5019995;28;20220;-76
2023/08/19 11:36:37;;;;;;;5.03;4.20;;;35.20;44.80;;;;;;5026537;28;20499;-76
2023/08/19 11:39:04;;;;;;;5.03;4.63;;;35.30;44.50;;;;;;5024580;28;20445;-76
2023/08/19 11:41:30;;;;;;;4.77;4.47;;;35.50;44.40;;;;;;5027765;28;20433;-77
2023/08/19 11:43:57;;;;;;;5.87;4.90;;;35.30;43.70;;;;;;5022952;28;20499;-77
2023/08/19 11:46:27;;;;;;;5.43;4.70;;;35.20;44.20;;;;;;5020775;28;20461;-78
2023/08/19 11:48:52;;;;;;;5.50;4.17;;;35.30;44.40;;;;;;5022142;28;20451;-77
2023/08/19 11:51:19;;;;;;;5.37;4.77;;;35.30;44.40;;;;;;5025489;28;20442;-78
2023/08/19 11:53:49;;;;;;;5.00;4.60;;;35.20;44.80;;;;;;5027437;28;20178;-77
2023/08/19 11:56:15;;;;;;;5.63;4.70;;;35.40;44.10;;;;;;5027870;28;20448;-77
2023/08/19 11:58:41;;;;;;;4.90;4.40;;;35.70;44.30;;;;;;5023645;28;20599;-77
2023/08/19 12:01:07;;;;;;;6.00;4.20;;;35.90;42.80;;;;;;5027611;28;20194;-77
2023/08/19 12:03:33;;;;;;;8.23;5.40;;;36.20;42.50;;;;;;5020770;28;20428;-78
2023/08/19 12:05:58;;;;;;;6.30;4.53;;;36.70;42.40;;;;;;5022242;28;20461;-77
2023/08/19 12:08:31;;;;;;;8.03;4.67;;;36.90;41.70;;;;;;5029203;28;20186;-77
2023/08/19 12:10:58;;;;;;;5.00;4.53;;;36.90;41.70;;;;;;5020010;28;20210;-78
2023/08/19 12:13:26;;;;;;;4.63;4.23;;;36.80;42.10;;;;;;5022353;28;20498;-77
2023/08/19 12:15:52;;;;;;;4.90;4.47;;;36.40;41.40;;;;;;5016612;28;20483;-77
2023/08/19 12:18:18;;;;;;;6.10;4.67;;;36.40;42.50;;;;;;5036588;28;20966;-78
2023/08/19 12:20:45;;;;;;;5.13;4.63;;;36.20;42.30;;;;;;5017894;28;20552;-76
2023/08/19 12:23:11;;;;;;;6.20;4.40;;;36.00;42.60;;;;;;5020152;28;20206;-77
2023/08/19 12:25:53;;;;;;;5.63;5.13;;;35.90;42.70;;;;;;5018852;28;20506;-78
2023/08/19 12:28:20;;;;;;;7.87;5.70;;;35.80;43.30;;;;;;5023100;28;20189;-76
2023/08/19 12:30:46;;;;;;;5.10;4.70;;;35.90;44.20;;;;;;5028971;28;20511;-76
2023/08/19 12:33:13;;;;;;;4.90;4.50;;;35.80;42.60;;;;;;5027593;28;20444;-76
2023/08/19 12:35:41;;;;;;;8.20;5.03;;;35.80;42.60;;;;;;5030526;28;20468;-77
2023/08/19 12:38:08;;;;;;;5.27;4.73;;;35.90;43.40;;;;;;5019837;28;20510;-76
2023/08/19 12:40:34;;;;;;;7.40;4.80;;;35.90;42.50;;;;;;5022377;28;20453;-78
2023/08/19 12:43:00;;;;;;;5.17;4.77;;;35.70;42.40;;;;;;5019531;28;20849;-78
2023/08/19 12:45:26;;;;;;;7.70;5.03;;;35.70;42.80;;;;;;5025223;28;20475;-78
2023/08/19 12:47:52;;;;;;;7.77;4.73;;;35.70;42.30;;;;;;5027380;28;20443;-78